createdAt,value
2022-10-14T00:02:17.493Z,41.08
2022-10-14T00:04:44.031Z,28.40
2022-10-14T00:07:18.886Z,15.07
2022-10-14T00:09:46.447Z,41.53
2022-10-14T00:12:12.982Z,28.00
2022-10-14T00:14:39.504Z,23.70
2022-10-14T00:17:09.006Z,19.47
2022-10-14T00:19:35.437Z,21.50
2022-10-14T00:22:02.012Z,24.42
2022-10-14T00:24:40.142Z,39.30
2022-10-14T00:27:16.125Z,25.77
2022-10-14T00:29:43.660Z,26.10
2022-10-14T00:32:13.214Z,18.45
2022-10-14T00:34:39.668Z,18.45
2022-10-14T00:37:06.106Z,27.23
2022-10-14T00:39:39.764Z,21.27
2022-10-14T00:42:14.034Z,20.03
2022-10-14T00:44:43.585Z,27.35
2022-10-14T00:47:10.289Z,23.13
2022-10-14T00:49:40.862Z,21.75
2022-10-14T00:52:17.909Z,24.27
2022-10-14T00:55:17.767Z,24.97
2022-10-14T00:57:45.231Z,26.80
2022-10-14T01:00:15.584Z,28.20
2022-10-14T01:02:52.276Z,21.38
2022-10-14T01:05:47.345Z,25.05
2022-10-14T01:08:53.190Z,17.37
2022-10-14T01:11:35.943Z,18.85
2022-10-14T01:14:44.012Z,19.67
2022-10-14T01:17:25.340Z,15.43
2022-10-14T01:20:19.722Z,18.30
2022-10-14T01:23:19.287Z,19.43
2022-10-14T01:25:58.880Z,18.33
2022-10-14T01:28:47.749Z,21.00
2022-10-14T01:31:21.450Z,21.48
2022-10-14T01:33:56.682Z,22.35
2022-10-14T01:36:34.732Z,17.00
2022-10-14T01:39:17.799Z,19.00
2022-10-14T01:41:53.716Z,15.50
2022-10-14T01:44:25.901Z,16.67
2022-10-14T01:46:54.952Z,18.70
2022-10-14T01:49:45.308Z,25.37
2022-10-14T01:52:24.127Z,22.65
2022-10-14T01:54:54.356Z,25.23
2022-10-14T01:57:31.732Z,18.45
2022-10-14T02:00:04.772Z,17.70
2022-10-14T02:02:31.153Z,24.80
2022-10-14T02:05:21.025Z,17.98
2022-10-14T02:08:08.223Z,23.25
2022-10-14T02:11:17.421Z,21.63
2022-10-14T02:14:05.233Z,21.77
2022-10-14T02:16:51.852Z,21.43
2022-10-14T02:19:27.253Z,19.70
2022-10-14T02:21:55.842Z,20.33
2022-10-14T02:24:55.073Z,19.30
2022-10-14T02:28:01.864Z,20.17
2022-10-14T02:30:32.612Z,25.40
2022-10-14T02:33:00.988Z,22.33
2022-10-14T02:35:30.381Z,18.55
2022-10-14T02:38:02.292Z,23.83
2022-10-14T02:40:42.909Z,25.02
2022-10-14T02:43:11.617Z,23.93
2022-10-14T02:45:39.689Z,39.78
2022-10-14T02:48:14.376Z,26.80
2022-10-14T02:50:42.105Z,29.42
2022-10-14T02:53:37.955Z,21.45
2022-10-14T02:56:04.407Z,19.10
2022-10-14T02:58:30.955Z,23.65
2022-10-14T03:00:57.365Z,23.30
2022-10-14T03:03:28.925Z,25.45
2022-10-14T03:06:07.728Z,26.38
2022-10-14T03:08:34.301Z,22.30
2022-10-14T03:11:17.846Z,25.15
2022-10-14T03:13:47.324Z,26.52
2022-10-14T03:16:29.967Z,28.75
2022-10-14T03:18:56.301Z,23.92
2022-10-14T03:21:22.749Z,22.93
2022-10-14T03:23:53.213Z,29.35
2022-10-14T03:26:35.113Z,22.95
2022-10-14T03:29:02.621Z,23.73
2022-10-14T03:31:43.303Z,23.63
2022-10-14T03:34:10.170Z,23.70
2022-10-14T03:36:39.592Z,30.88
2022-10-14T03:39:05.955Z,24.75
2022-10-14T03:41:34.539Z,27.60
2022-10-14T03:44:03.026Z,28.23
2022-10-14T03:46:42.787Z,28.90
2022-10-14T03:49:12.975Z,34.22
2022-10-14T03:51:39.337Z,28.75
2022-10-14T03:54:05.933Z,24.50
2022-10-14T03:56:32.379Z,27.38
2022-10-14T03:58:58.823Z,31.87
2022-10-14T04:01:25.546Z,28.27
2022-10-14T04:03:52.123Z,33.85
2022-10-14T04:06:24.517Z,28.08
2022-10-14T04:09:09.375Z,28.38
2022-10-14T04:11:35.782Z,33.23
2022-10-14T04:14:02.168Z,29.90
2022-10-14T04:16:28.621Z,30.73
2022-10-14T04:19:04.987Z,28.17
2022-10-14T04:21:31.361Z,30.02
2022-10-14T04:24:17.020Z,34.03
2022-10-14T04:26:49.351Z,33.03
2022-10-14T04:29:15.716Z,29.52
2022-10-14T04:32:06.096Z,31.23
2022-10-14T04:34:34.540Z,31.48
2022-10-14T04:37:01.621Z,31.20
2022-10-14T04:39:28.096Z,28.50
2022-10-14T04:41:54.534Z,31.42
2022-10-14T04:44:20.940Z,31.63
2022-10-14T04:47:06.640Z,31.67
2022-10-14T04:49:33.598Z,34.00
2022-10-14T04:52:27.084Z,32.25
2022-10-14T04:54:53.504Z,34.17
2022-10-14T04:57:19.938Z,32.83
2022-10-14T05:00:07.092Z,29.73
2022-10-14T05:02:34.510Z,34.17
2022-10-14T05:05:00.958Z,33.40
2022-10-14T05:07:27.398Z,33.35
2022-10-14T05:10:01.059Z,33.63
2022-10-14T05:12:28.362Z,38.75
2022-10-14T05:14:55.133Z,42.43
2022-10-14T05:17:23.787Z,34.20
2022-10-14T05:19:51.249Z,33.88
2022-10-14T05:22:38.156Z,34.78
2022-10-14T05:25:06.035Z,35.58
2022-10-14T05:27:33.511Z,37.83
2022-10-14T05:30:38.301Z,33.20
2022-10-14T05:33:04.732Z,35.28
2022-10-14T05:35:57.062Z,38.15
2022-10-14T05:38:17.560Z,35.42
2022-10-14T05:40:51.693Z,37.03
2022-10-14T05:43:18.153Z,36.88
2022-10-14T05:45:52.935Z,34.75
2022-10-14T05:48:19.549Z,34.42
2022-10-14T05:50:45.957Z,33.58
2022-10-14T05:53:12.578Z,32.67
2022-10-14T05:55:39.238Z,32.45
2022-10-14T05:58:05.679Z,37.83
2022-10-14T06:00:32.266Z,31.58
2022-10-14T06:02:59.013Z,29.55
2022-10-14T06:05:25.903Z,32.07
2022-10-14T06:07:52.403Z,29.02
2022-10-14T06:10:18.879Z,30.85
2022-10-14T06:12:45.338Z,26.38
2022-10-14T06:15:11.742Z,25.45
2022-10-14T06:17:38.229Z,24.87
2022-10-14T06:20:08.272Z,24.65
2022-10-14T06:22:35.692Z,23.23
2022-10-14T06:25:04.506Z,22.30
2022-10-14T06:27:42.605Z,21.17
2022-10-14T06:30:24.940Z,20.03
2022-10-14T06:32:52.983Z,17.48
2022-10-14T06:35:23.534Z,19.25
2022-10-14T06:37:49.993Z,18.27
2022-10-14T06:40:17.829Z,18.65
2022-10-14T06:42:44.220Z,15.17
2022-10-14T06:45:10.846Z,17.67
2022-10-14T06:47:37.234Z,16.27
2022-10-14T06:50:04.285Z,14.77
2022-10-14T06:52:30.833Z,14.40
2022-10-14T06:54:57.894Z,14.03
2022-10-14T06:57:24.350Z,13.05
2022-10-14T06:59:50.756Z,14.80
2022-10-14T07:02:17.152Z,12.68
2022-10-14T07:04:43.533Z,14.18
2022-10-14T07:07:10.741Z,12.97
2022-10-14T07:09:37.284Z,12.38
2022-10-14T07:12:03.737Z,11.73
2022-10-14T07:14:30.139Z,12.82
2022-10-14T07:16:56.481Z,13.32
2022-10-14T07:19:22.853Z,12.47
2022-10-14T07:21:49.323Z,11.30
2022-10-14T07:24:15.872Z,9.85
2022-10-14T07:26:42.421Z,12.30
2022-10-14T07:29:08.972Z,11.98
2022-10-14T07:31:35.771Z,11.63
2022-10-14T07:34:02.113Z,11.35
2022-10-14T07:36:28.592Z,11.10
2022-10-14T07:38:54.947Z,10.25
2022-10-14T07:41:25.075Z,9.48
2022-10-14T07:43:54.368Z,9.80
2022-10-14T07:46:32.061Z,9.70
2022-10-14T07:49:00.990Z,9.35
2022-10-14T07:51:28.364Z,13.90
2022-10-14T07:53:59.257Z,9.88
2022-10-14T07:56:26.049Z,9.87
2022-10-14T07:58:53.198Z,8.90
2022-10-14T08:01:19.830Z,9.00
2022-10-14T08:03:47.771Z,9.50
2022-10-14T08:06:15.264Z,11.15
2022-10-14T08:08:42.326Z,8.77
2022-10-14T08:11:14.241Z,11.57
2022-10-14T08:13:51.526Z,10.10
2022-10-14T08:16:21.345Z,11.20
2022-10-14T08:18:48.491Z,10.05
2022-10-14T08:21:18.767Z,12.40
2022-10-14T08:23:45.818Z,12.00
2022-10-14T08:26:19.097Z,10.77
2022-10-14T08:28:49.771Z,11.55
2022-10-14T08:31:29.092Z,15.05
2022-10-14T08:33:55.512Z,10.97
2022-10-14T08:36:24.370Z,12.70
2022-10-14T08:38:53.084Z,13.15
2022-10-14T08:41:50.350Z,14.07
2022-10-14T08:44:41.309Z,13.18
2022-10-14T08:47:14.671Z,15.10
2022-10-14T08:50:05.516Z,14.75
2022-10-14T08:52:42.940Z,12.77
2022-10-14T08:55:46.579Z,15.90
2022-10-14T08:58:19.020Z,13.70
2022-10-14T09:00:50.983Z,13.80
2022-10-14T09:03:33.413Z,11.73
2022-10-14T09:06:04.750Z,15.40
2022-10-14T09:08:40.585Z,14.18
2022-10-14T09:11:29.573Z,17.42
2022-10-14T09:13:59.918Z,12.87
2022-10-14T09:16:31.023Z,13.00
2022-10-14T09:19:22.548Z,12.43
2022-10-14T09:21:54.332Z,11.73
2022-10-14T09:24:24.711Z,12.43
2022-10-14T09:27:18.201Z,12.27
2022-10-14T09:29:57.343Z,14.15
2022-10-14T09:32:41.217Z,9.30
2022-10-14T09:35:26.125Z,10.57
2022-10-14T09:37:55.773Z,10.15
2022-10-14T09:40:30.123Z,12.17
2022-10-14T09:43:08.680Z,10.73
2022-10-14T09:46:04.988Z,13.80
2022-10-14T09:48:39.686Z,12.50
2022-10-14T09:51:17.906Z,15.25
2022-10-14T09:53:53.148Z,11.03
2022-10-14T09:56:37.468Z,13.02
2022-10-14T09:59:22.487Z,12.63
2022-10-14T10:01:51.805Z,13.20
2022-10-14T10:04:30.328Z,15.05
2022-10-14T10:07:07.029Z,13.17
2022-10-14T10:09:34.471Z,14.00
2022-10-14T10:12:00.945Z,13.75
2022-10-14T10:14:33.103Z,12.85
2022-10-14T10:17:08.716Z,13.90
2022-10-14T10:19:44.263Z,13.00
2022-10-14T10:22:31.644Z,13.40
2022-10-14T10:25:01.120Z,13.68
2022-10-14T10:27:31.393Z,13.02
2022-10-14T10:30:22.506Z,11.70
2022-10-14T10:33:28.396Z,12.27
2022-10-14T10:36:29.681Z,12.23
2022-10-14T10:39:10.805Z,11.30
2022-10-14T10:42:10.680Z,8.55
2022-10-14T10:44:50.464Z,11.20
2022-10-14T10:47:24.367Z,10.20
2022-10-14T10:50:08.301Z,11.00
2022-10-14T10:52:46.884Z,12.05
2022-10-14T10:55:26.283Z,10.13
2022-10-14T10:58:44.184Z,11.65
2022-10-14T11:01:29.411Z,10.60
2022-10-14T11:04:42.473Z,8.63
2022-10-14T11:07:54.855Z,8.35
2022-10-14T11:11:13.061Z,8.05
2022-10-14T11:13:55.562Z,7.97
2022-10-14T11:16:33.131Z,6.70
2022-10-14T11:19:39.414Z,7.00
2022-10-14T11:22:59.144Z,7.72
2022-10-14T11:25:32.538Z,6.82
2022-10-14T11:28:21.950Z,7.60
2022-10-14T11:31:27.919Z,7.77
2022-10-14T11:34:10.903Z,6.07
2022-10-14T11:36:59.422Z,7.13
2022-10-14T11:39:41.659Z,6.13
2022-10-14T11:42:21.811Z,6.55
2022-10-14T11:44:56.732Z,7.30
2022-10-14T11:47:27.766Z,9.10
2022-10-14T11:50:06.250Z,6.82
2022-10-14T11:53:01.726Z,7.13
2022-10-14T11:55:34.468Z,6.53
2022-10-14T11:58:10.455Z,6.17
2022-10-14T12:00:56.722Z,7.18
2022-10-14T12:03:40.852Z,6.75
2022-10-14T12:06:20.249Z,9.13
2022-10-14T12:09:00.580Z,5.65
2022-10-14T12:12:09.207Z,6.10
2022-10-14T12:14:59.177Z,6.15
2022-10-14T12:18:01.557Z,7.38
2022-10-14T12:20:36.407Z,6.45
2022-10-14T12:23:15.189Z,6.63
2022-10-14T12:25:56.460Z,7.33
2022-10-14T12:28:23.268Z,6.97
2022-10-14T12:31:37.885Z,7.47
2022-10-14T12:34:18.917Z,5.97
2022-10-14T12:36:48.778Z,7.55
2022-10-14T12:39:18.191Z,5.40
2022-10-14T12:42:05.542Z,5.90
2022-10-14T12:44:52.494Z,5.38
2022-10-14T12:47:22.119Z,5.35
2022-10-14T12:49:53.639Z,4.68
2022-10-14T12:52:51.183Z,5.33
2022-10-14T12:55:57.541Z,5.60
2022-10-14T12:58:31.847Z,4.70
2022-10-14T13:01:05.797Z,6.22
2022-10-14T13:03:37.130Z,6.05
2022-10-14T13:06:33.623Z,6.00
2022-10-14T13:09:12.210Z,4.70
2022-10-14T13:11:41.281Z,7.63
2022-10-14T13:14:23.073Z,5.65
2022-10-14T13:17:01.385Z,5.57
2022-10-14T13:19:33.928Z,5.77
2022-10-14T13:22:02.805Z,21.73
2022-10-14T13:24:41.593Z,31.90
2022-10-14T13:27:30.237Z,17.00
2022-10-14T13:30:08.589Z,9.18
2022-10-14T13:32:43.756Z,7.37
2022-10-14T13:35:32.144Z,6.35
2022-10-14T13:38:06.343Z,7.50
2022-10-14T13:40:44.265Z,5.50
2022-10-14T13:43:16.349Z,5.82
2022-10-14T13:45:46.509Z,5.03
2022-10-14T13:48:16.913Z,5.80
2022-10-14T13:50:45.086Z,7.40
2022-10-14T13:53:19.860Z,7.00
2022-10-14T13:55:56.475Z,5.88
2022-10-14T13:58:24.798Z,5.97
2022-10-14T14:01:02.346Z,5.88
2022-10-14T14:03:33.047Z,6.65
2022-10-14T14:06:39.864Z,5.57
2022-10-14T14:09:27.437Z,5.95
2022-10-14T14:11:55.577Z,6.07
2022-10-14T14:14:43.400Z,7.18
2022-10-14T14:17:24.769Z,6.13
2022-10-14T14:19:51.602Z,5.10
2022-10-14T14:22:31.520Z,6.10
2022-10-14T14:25:36.925Z,7.27
2022-10-14T14:28:06.934Z,7.45
2022-10-14T14:30:38.802Z,9.30
2022-10-14T14:33:11.749Z,5.85
2022-10-14T14:35:54.737Z,6.53
2022-10-14T14:38:26.442Z,7.30
2022-10-14T14:41:25.235Z,6.55
2022-10-14T14:44:07.606Z,6.32
2022-10-14T14:46:43.001Z,7.38
2022-10-14T14:49:16.474Z,6.32
2022-10-14T14:51:46.358Z,7.63
2022-10-14T14:54:18.639Z,7.82
2022-10-14T14:57:00.538Z,8.43
2022-10-14T14:59:30.195Z,7.90
2022-10-14T15:02:02.046Z,8.55
2022-10-14T15:04:34.812Z,8.17
2022-10-14T15:07:05.150Z,8.68
2022-10-14T15:10:15.435Z,9.07
2022-10-14T15:12:54.100Z,10.05
2022-10-14T15:15:32.565Z,10.85
2022-10-14T15:18:14.814Z,9.70
2022-10-14T15:20:42.935Z,12.35
2022-10-14T15:23:37.127Z,11.95
2022-10-14T15:26:04.277Z,10.48
2022-10-14T15:28:32.947Z,11.07
2022-10-14T15:31:03.162Z,10.07
2022-10-14T15:33:36.808Z,12.55
2022-10-14T15:36:18.620Z,12.85
2022-10-14T15:38:45.035Z,11.77
2022-10-14T15:41:17.731Z,13.27
2022-10-14T15:43:59.599Z,15.87
2022-10-14T15:46:44.754Z,14.30
2022-10-14T15:49:17.016Z,15.05
2022-10-14T15:51:43.487Z,16.05
2022-10-14T15:54:12.567Z,11.90
2022-10-14T15:56:41.890Z,14.90
2022-10-14T15:59:10.026Z,11.73
2022-10-14T16:01:42.936Z,12.60
2022-10-14T16:04:16.374Z,11.93
2022-10-14T16:06:57.608Z,11.25
2022-10-14T16:09:26.685Z,12.87
2022-10-14T16:11:57.388Z,20.13
2022-10-14T16:14:26.979Z,14.48
2022-10-14T16:16:53.866Z,17.15
2022-10-14T16:19:20.383Z,13.05
2022-10-14T16:21:47.943Z,13.77
2022-10-14T16:24:20.370Z,12.60
2022-10-14T16:27:08.975Z,15.75
2022-10-14T16:29:44.611Z,13.93
2022-10-14T16:32:15.621Z,15.18
2022-10-14T16:34:46.116Z,11.10
2022-10-14T16:37:12.486Z,11.18
2022-10-14T16:39:39.888Z,10.77
2022-10-14T16:42:06.390Z,12.20
2022-10-14T16:44:33.336Z,11.02
2022-10-14T16:47:17.130Z,11.83
2022-10-14T16:49:51.055Z,12.25
2022-10-14T16:52:18.510Z,12.30
2022-10-14T16:54:44.892Z,11.27
2022-10-14T16:57:12.158Z,10.55
2022-10-14T16:59:38.707Z,14.63
2022-10-14T17:02:05.671Z,14.98
2022-10-14T17:04:32.301Z,13.57
2022-10-14T17:06:59.040Z,14.15
2022-10-14T17:11:51.941Z,12.97
2022-10-14T17:14:43.964Z,12.02
2022-10-14T17:17:10.519Z,15.07
2022-10-14T17:19:43.060Z,18.40
2022-10-14T17:22:09.759Z,29.45
2022-10-14T17:24:36.240Z,39.97
2022-10-14T17:27:08.036Z,51.35
2022-10-14T17:29:42.601Z,67.95
2022-10-14T17:32:23.727Z,74.85
2022-10-14T17:34:53.713Z,79.90
2022-10-14T17:37:20.343Z,28.53
2022-10-14T17:39:46.682Z,20.98
2022-10-14T17:42:19.491Z,18.92
2022-10-14T17:45:02.259Z,18.67
2022-10-14T17:47:28.932Z,19.42
2022-10-14T17:49:55.350Z,24.13
2022-10-14T17:52:36.156Z,20.67
2022-10-14T17:55:02.555Z,19.85
2022-10-14T17:58:05.061Z,16.75
2022-10-14T18:00:34.817Z,30.80
2022-10-14T18:03:01.362Z,28.40
2022-10-14T18:05:32.997Z,21.95
2022-10-14T18:08:02.602Z,29.48
2022-10-14T18:10:28.970Z,30.48
2022-10-14T18:12:58.079Z,26.15
2022-10-14T18:15:31.175Z,23.27
2022-10-14T18:17:58.281Z,32.50
2022-10-14T18:20:28.804Z,28.60
2022-10-14T18:22:55.310Z,28.60
2022-10-14T18:25:41.125Z,22.17
2022-10-14T18:28:19.837Z,25.10
2022-10-14T18:30:48.429Z,21.52
2022-10-14T18:33:14.819Z,18.08
2022-10-14T18:35:45.120Z,18.38
2022-10-14T18:38:14.457Z,16.73
2022-10-14T18:41:02.391Z,14.30
2022-10-14T18:44:00.714Z,16.65
2022-10-14T18:46:33.958Z,18.45
2022-10-14T18:49:01.311Z,14.65
2022-10-14T18:51:58.897Z,16.42
2022-10-14T18:54:25.657Z,16.43
2022-10-14T18:56:53.437Z,23.23
2022-10-14T18:59:23.549Z,44.00
2022-10-14T19:01:53.370Z,98.63
2022-10-14T19:04:39.772Z,92.43
2022-10-14T19:07:13.325Z,67.93
2022-10-14T19:09:39.777Z,38.78
2022-10-14T19:12:27.320Z,28.73
2022-10-14T19:15:00.781Z,19.92
2022-10-14T19:17:54.581Z,18.00
2022-10-14T19:20:27.448Z,17.30
2022-10-14T19:22:56.671Z,18.63
2022-10-14T19:25:23.525Z,19.42
2022-10-14T19:27:51.981Z,18.20
2022-10-14T19:30:31.700Z,16.52
2022-10-14T19:33:12.440Z,15.90
2022-10-14T19:35:56.368Z,17.23
2022-10-14T19:38:23.863Z,16.20
2022-10-14T19:40:59.101Z,18.92
2022-10-14T19:43:27.504Z,16.55
2022-10-14T19:45:54.151Z,20.30
2022-10-14T19:48:20.989Z,17.30
2022-10-14T19:50:49.848Z,16.70
2022-10-14T19:53:20.568Z,17.80
2022-10-14T19:55:46.988Z,18.08
2022-10-14T19:58:15.485Z,20.83
2022-10-14T20:00:45.984Z,20.20
2022-10-14T20:03:12.392Z,22.08
2022-10-14T20:05:38.936Z,20.95
2022-10-14T20:08:05.318Z,20.00
2022-10-14T20:10:47.047Z,19.83
2022-10-14T20:13:13.500Z,21.45
2022-10-14T20:15:39.881Z,18.33
2022-10-14T20:18:19.558Z,16.40
2022-10-14T20:20:46.013Z,18.80
2022-10-14T20:23:12.389Z,16.73
2022-10-14T20:25:38.831Z,16.95
2022-10-14T20:28:19.367Z,16.98
2022-10-14T20:30:47.319Z,17.38
2022-10-14T20:33:14.169Z,16.70
2022-10-14T20:35:40.786Z,17.33
2022-10-14T20:38:07.345Z,16.38
2022-10-14T20:40:35.686Z,15.63
2022-10-14T20:43:03.255Z,18.25
2022-10-14T20:45:47.039Z,15.00
2022-10-14T20:48:16.527Z,16.33
2022-10-14T20:50:43.069Z,16.20
2022-10-14T20:53:09.614Z,18.08
2022-10-14T20:55:36.062Z,19.25
2022-10-14T20:58:06.677Z,18.17
2022-10-14T21:00:47.363Z,18.37
2022-10-14T21:03:17.024Z,16.52
2022-10-14T21:06:04.861Z,20.10
2022-10-14T21:08:31.889Z,22.13
2022-10-14T21:11:00.672Z,17.85
2022-10-14T21:13:28.376Z,20.00
2022-10-14T21:15:55.669Z,17.30
2022-10-14T21:18:24.649Z,19.63
2022-10-14T21:23:42.234Z,20.23
2022-10-14T21:26:11.864Z,15.43
2022-10-14T21:28:38.384Z,15.90
2022-10-14T21:31:07.794Z,19.80
2022-10-14T21:33:34.858Z,14.30
2022-10-14T21:36:11.808Z,16.75
2022-10-14T21:38:57.745Z,17.27
2022-10-14T21:41:24.676Z,15.15
2022-10-14T21:43:51.221Z,15.55
2022-10-14T21:46:18.368Z,15.90
2022-10-14T21:48:45.158Z,18.75
2022-10-14T21:51:17.500Z,16.17
2022-10-14T21:53:46.155Z,17.63
2022-10-14T21:56:17.317Z,16.75
2022-10-14T21:58:44.387Z,19.52
2022-10-14T22:01:14.778Z,17.95
2022-10-14T22:03:45.511Z,19.00
2022-10-14T22:06:36.249Z,19.65
2022-10-14T22:09:05.770Z,19.75
2022-10-14T22:11:36.321Z,20.20
2022-10-14T22:14:06.685Z,15.30
2022-10-14T22:16:42.358Z,18.40
2022-10-14T22:19:10.385Z,19.33
2022-10-14T22:21:40.049Z,17.30
2022-10-14T22:24:34.467Z,20.10
2022-10-14T22:27:18.284Z,19.40
2022-10-14T22:29:44.740Z,19.53
2022-10-14T22:32:14.221Z,21.17
2022-10-14T22:34:43.105Z,19.17
2022-10-14T22:37:09.518Z,19.20
2022-10-14T22:39:41.089Z,21.38
2022-10-14T22:42:25.020Z,18.67
2022-10-14T22:44:51.461Z,20.52
2022-10-14T22:47:17.833Z,19.27
2022-10-14T22:49:44.297Z,20.85
2022-10-14T22:52:10.751Z,19.45
2022-10-14T22:54:37.563Z,21.30
2022-10-14T22:57:03.990Z,21.75
2022-10-14T22:59:30.445Z,20.90
2022-10-14T23:01:56.872Z,20.75
2022-10-14T23:04:23.281Z,23.15
2022-10-14T23:06:52.860Z,23.87
2022-10-14T23:09:19.301Z,22.08
2022-10-14T23:11:45.729Z,21.67
2022-10-14T23:14:12.115Z,21.80
2022-10-14T23:16:39.048Z,20.38
2022-10-14T23:19:08.984Z,20.20
2022-10-14T23:21:37.613Z,20.50
2022-10-14T23:24:10.448Z,22.67
2022-10-14T23:26:37.125Z,22.92
2022-10-14T23:29:17.957Z,20.95
2022-10-14T23:31:46.381Z,20.40
2022-10-14T23:34:14.134Z,22.67
2022-10-14T23:36:43.840Z,25.17
2022-10-14T23:39:11.439Z,22.10
2022-10-14T23:41:38.076Z,24.83
2022-10-14T23:44:14.765Z,21.27
2022-10-14T23:46:41.333Z,23.48
2022-10-14T23:49:26.055Z,19.90
2022-10-14T23:51:53.379Z,21.60
2022-10-14T23:54:19.967Z,21.95
2022-10-14T23:56:46.401Z,21.57
2022-10-14T23:59:12.992Z,22.27
